createdAt,value
2022-08-22T00:02:58.278Z,2.63
2022-08-22T00:03:07.476Z,3.10
2022-08-22T00:04:00.766Z,3.63
2022-08-22T00:09:26.798Z,3.07
2022-08-22T00:14:40.582Z,3.00
2022-08-22T00:20:00.510Z,3.07
2022-08-22T00:25:40.675Z,3.57
2022-08-22T00:30:56.029Z,3.27
2022-08-22T00:36:21.888Z,3.13
2022-08-22T00:42:07.054Z,4.10
2022-08-22T00:47:51.262Z,3.87
2022-08-22T00:53:11.175Z,3.30
2022-08-22T00:58:53.217Z,3.90
2022-08-22T01:04:29.452Z,3.53
2022-08-22T01:09:48.011Z,4.07
2022-08-22T01:15:00.468Z,4.47
2022-08-22T01:20:37.949Z,3.80
2022-08-22T01:26:32.261Z,3.60
2022-08-22T01:32:05.998Z,3.80
2022-08-22T01:37:33.881Z,3.77
2022-08-22T01:43:12.090Z,3.73
2022-08-22T01:48:23.310Z,3.90
2022-08-22T01:53:41.898Z,3.80
2022-08-22T01:59:02.256Z,3.30
2022-08-22T02:04:12.087Z,3.10
2022-08-22T02:09:41.695Z,4.50
2022-08-22T02:14:53.834Z,3.73
2022-08-22T02:20:17.531Z,3.53
2022-08-22T02:25:33.536Z,2.90
2022-08-22T02:30:52.002Z,3.50
2022-08-22T02:36:03.697Z,3.50
2022-08-22T02:41:18.698Z,3.70
2022-08-22T02:46:41.354Z,3.43
2022-08-22T02:51:59.909Z,4.30
2022-08-22T02:57:14.690Z,3.70
2022-08-22T03:02:35.223Z,3.80
2022-08-22T03:08:03.898Z,3.67
2022-08-22T03:13:22.298Z,3.80
2022-08-22T03:18:47.383Z,3.60
2022-08-22T03:23:58.199Z,3.57
2022-08-22T03:29:11.859Z,3.40
2022-08-22T03:34:22.132Z,3.57
2022-08-22T03:40:09.617Z,3.43
2022-08-22T03:45:50.663Z,3.93
2022-08-22T03:51:32.783Z,3.80
2022-08-22T03:57:26.253Z,4.73
2022-08-22T04:03:08.988Z,4.63
2022-08-22T04:09:05.043Z,4.13
2022-08-22T04:14:53.958Z,4.53
2022-08-22T04:20:30.949Z,4.77
2022-08-22T04:25:39.122Z,4.23
2022-08-22T04:30:46.270Z,3.67
2022-08-22T04:35:59.650Z,4.30
2022-08-22T04:41:08.713Z,4.13
2022-08-22T04:46:18.823Z,4.07
2022-08-22T04:51:27.780Z,4.47
2022-08-22T04:56:39.190Z,4.43
2022-08-22T05:01:44.823Z,3.90
2022-08-22T05:06:52.711Z,3.23
2022-08-22T05:12:11.427Z,4.30
2022-08-22T05:17:20.230Z,3.87
2022-08-22T05:22:27.558Z,4.43
2022-08-22T05:27:36.688Z,4.37
2022-08-22T05:32:49.411Z,4.23
2022-08-22T05:37:56.981Z,4.37
2022-08-22T05:43:01.691Z,3.80
2022-08-22T05:48:14.019Z,4.20
2022-08-22T05:53:26.086Z,4.13
2022-08-22T05:58:46.375Z,4.13
2022-08-22T06:03:58.785Z,4.60
2022-08-22T06:09:04.593Z,3.70
2022-08-22T06:14:18.319Z,4.00
2022-08-22T06:19:27.025Z,3.80
2022-08-22T06:24:31.063Z,3.50
2022-08-22T06:29:37.817Z,3.80
2022-08-22T06:34:43.206Z,4.07
2022-08-22T06:39:49.022Z,3.83
2022-08-22T06:44:56.979Z,4.13
2022-08-22T06:50:05.468Z,3.73
2022-08-22T06:55:09.908Z,4.53
2022-08-22T07:00:16.044Z,3.87
2022-08-22T07:05:20.977Z,3.90
2022-08-22T07:10:24.982Z,4.50
2022-08-22T07:15:34.653Z,4.37
2022-08-22T07:20:39.382Z,3.80
2022-08-22T07:25:52.533Z,3.80
2022-08-22T07:30:59.282Z,4.07
2022-08-22T07:36:16.304Z,4.00
2022-08-22T07:41:22.776Z,3.47
2022-08-22T07:46:30.589Z,3.53
2022-08-22T07:51:35.881Z,2.88
2022-08-22T07:56:43.270Z,3.33
2022-08-22T08:01:50.192Z,2.97
2022-08-22T08:06:55.317Z,2.75
2022-08-22T08:11:59.103Z,2.65
2022-08-22T08:17:04.738Z,2.65
2022-08-22T08:22:07.773Z,2.05
2022-08-22T08:27:15.383Z,1.83
2022-08-22T08:32:19.140Z,1.90
2022-08-22T08:37:27.626Z,1.73
2022-08-22T08:42:48.994Z,1.48
2022-08-22T08:48:09.590Z,1.55
2022-08-22T08:53:36.440Z,1.38
2022-08-22T08:58:44.384Z,1.50
2022-08-22T09:04:24.999Z,1.45
2022-08-22T09:09:42.867Z,1.85
2022-08-22T09:15:14.294Z,1.55
2022-08-22T09:20:28.664Z,1.95
2022-08-22T09:25:39.201Z,2.20
2022-08-22T09:30:57.874Z,1.88
2022-08-22T09:36:06.061Z,2.20
2022-08-22T09:41:26.965Z,2.10
2022-08-22T09:46:36.989Z,1.92
2022-08-22T09:51:50.288Z,1.73
2022-08-22T09:57:08.297Z,2.22
2022-08-22T10:02:23.638Z,1.27
2022-08-22T10:07:59.173Z,1.50
2022-08-22T10:13:10.692Z,1.75
2022-08-22T10:18:23.966Z,1.00
2022-08-22T10:23:37.632Z,1.35
2022-08-22T10:28:48.647Z,1.20
2022-08-22T10:34:00.899Z,1.10
2022-08-22T10:39:11.611Z,1.10
2022-08-22T10:44:19.119Z,1.10
2022-08-22T10:49:28.370Z,1.00
2022-08-22T10:54:41.394Z,1.10
2022-08-22T10:59:49.140Z,1.30
2022-08-22T11:05:27.638Z,1.45
2022-08-22T11:10:59.842Z,1.10
2022-08-22T11:16:13.258Z,1.33
2022-08-22T11:21:26.288Z,1.42
2022-08-22T11:26:46.659Z,1.27
2022-08-22T11:32:04.307Z,1.67
2022-08-22T11:37:42.197Z,1.20
2022-08-22T11:42:53.678Z,1.45
2022-08-22T11:48:01.585Z,1.10
2022-08-22T11:53:19.791Z,1.42
2022-08-22T11:58:40.885Z,1.17
2022-08-22T12:03:58.453Z,0.90
2022-08-22T12:09:37.997Z,0.80
2022-08-22T12:14:46.825Z,1.15
2022-08-22T12:20:16.612Z,1.10
2022-08-22T12:25:36.278Z,1.17
2022-08-22T12:30:59.913Z,1.10
2022-08-22T12:36:24.489Z,1.00
2022-08-22T12:41:48.230Z,1.00
2022-08-22T12:47:05.903Z,1.10
2022-08-22T12:52:24.256Z,1.10
2022-08-22T12:57:39.093Z,0.98
2022-08-22T13:02:43.432Z,1.20
2022-08-22T13:07:52.530Z,1.13
2022-08-22T13:12:59.233Z,1.00
2022-08-22T13:18:28.774Z,1.00
2022-08-22T13:23:34.287Z,1.00
2022-08-22T13:28:44.807Z,1.08
2022-08-22T13:33:52.640Z,1.30
2022-08-22T13:39:00.907Z,1.00
2022-08-22T13:44:20.590Z,1.05
2022-08-22T13:49:33.451Z,1.20
2022-08-22T13:54:50.423Z,1.20
2022-08-22T14:00:06.186Z,1.25
2022-08-22T14:05:13.429Z,1.85
2022-08-22T14:10:23.609Z,1.13
2022-08-22T14:15:32.186Z,1.27
2022-08-22T14:20:47.516Z,1.30
2022-08-22T14:25:50.128Z,1.17
2022-08-22T14:30:59.365Z,1.30
2022-08-22T14:36:13.351Z,0.90
2022-08-22T14:41:26.383Z,1.35
2022-08-22T14:46:35.530Z,1.20
2022-08-22T14:51:48.800Z,1.00
2022-08-22T14:56:54.821Z,1.00
2022-08-22T15:02:04.863Z,0.80
2022-08-22T15:07:10.549Z,1.10
2022-08-22T15:12:24.667Z,0.98
2022-08-22T15:17:38.208Z,1.48
2022-08-22T15:22:45.463Z,1.08
2022-08-22T15:28:05.182Z,1.40
2022-08-22T15:33:11.952Z,1.20
2022-08-22T15:38:31.480Z,1.05
2022-08-22T15:43:36.209Z,1.40
2022-08-22T15:48:39.430Z,1.30
2022-08-22T15:54:16.298Z,1.10
2022-08-22T15:59:47.703Z,1.40
2022-08-22T16:05:18.837Z,1.25
2022-08-22T16:10:35.122Z,1.23
2022-08-22T16:15:59.109Z,1.25
2022-08-22T16:21:02.495Z,1.35
2022-08-22T16:26:14.357Z,1.42
2022-08-22T16:31:23.502Z,1.30
2022-08-22T16:36:42.627Z,1.10
2022-08-22T16:41:47.182Z,1.23
2022-08-22T16:46:52.848Z,1.10
2022-08-22T16:52:34.378Z,1.08
2022-08-22T16:58:05.279Z,1.10
2022-08-22T17:03:20.052Z,1.20
2022-08-22T17:08:33.881Z,1.30
2022-08-22T17:13:56.076Z,1.00
2022-08-22T17:19:17.706Z,1.27
2022-08-22T17:24:31.718Z,1.40
2022-08-22T17:29:50.019Z,1.05
2022-08-22T17:34:58.977Z,1.20
2022-08-22T17:40:26.446Z,1.10
2022-08-22T17:45:44.810Z,1.10
2022-08-22T17:50:53.215Z,1.02
2022-08-22T17:56:03.363Z,1.10
2022-08-22T18:01:11.723Z,1.20
2022-08-22T18:06:20.402Z,1.20
2022-08-22T18:11:29.369Z,1.05
2022-08-22T18:16:35.379Z,1.20
2022-08-22T18:21:41.852Z,1.00
2022-08-22T18:26:50.968Z,1.15
2022-08-22T18:32:06.380Z,1.17
2022-08-22T18:37:18.979Z,1.20
2022-08-22T18:42:28.681Z,1.37
2022-08-22T18:47:34.307Z,1.17
2022-08-22T18:52:39.602Z,1.00
2022-08-22T18:57:58.994Z,0.97
2022-08-22T19:03:30.230Z,1.10
2022-08-22T19:08:49.315Z,1.83
2022-08-22T19:14:12.769Z,1.10
2022-08-22T19:19:21.090Z,0.97
2022-08-22T19:24:56.072Z,1.00
2022-08-22T19:30:01.379Z,1.00
2022-08-22T19:35:18.553Z,1.20
2022-08-22T19:40:53.570Z,1.03
2022-08-22T19:45:56.609Z,1.03
2022-08-22T19:51:12.672Z,1.10
2022-08-22T19:56:28.241Z,1.23
2022-08-22T20:01:45.934Z,0.87
2022-08-22T20:07:00.500Z,1.10
2022-08-22T20:12:15.540Z,1.20
2022-08-22T20:17:41.595Z,1.30
2022-08-22T20:22:49.803Z,1.50
2022-08-22T20:28:02.674Z,1.30
2022-08-22T20:33:09.209Z,1.40
2022-08-22T20:38:16.550Z,2.37
2022-08-22T20:43:24.474Z,1.10
2022-08-22T20:48:36.670Z,1.13
2022-08-22T20:53:40.167Z,1.03
2022-08-22T20:58:42.227Z,1.73
2022-08-22T21:03:47.509Z,1.50
2022-08-22T21:08:50.797Z,1.30
2022-08-22T21:13:53.538Z,1.27
2022-08-22T21:18:56.104Z,1.40
2022-08-22T21:24:03.292Z,1.30
2022-08-22T21:29:18.339Z,1.17
2022-08-22T21:34:23.426Z,1.20
2022-08-22T21:39:30.643Z,1.30
2022-08-22T21:44:35.949Z,1.83
2022-08-22T21:49:59.126Z,1.40
2022-08-22T21:55:26.241Z,1.30
2022-08-22T22:00:48.933Z,1.47
2022-08-22T22:05:53.114Z,1.23
2022-08-22T22:10:59.409Z,1.60
2022-08-22T22:16:01.429Z,1.30
2022-08-22T22:21:04.231Z,1.47
2022-08-22T22:26:07.296Z,1.50
2022-08-22T22:31:10.281Z,1.50
2022-08-22T22:36:16.323Z,1.50
2022-08-22T22:41:20.938Z,1.43
2022-08-22T22:46:24.200Z,1.60
2022-08-22T22:51:26.312Z,1.70
2022-08-22T22:56:29.784Z,2.00
2022-08-22T23:01:31.986Z,1.57
2022-08-22T23:06:34.863Z,1.97
2022-08-22T23:11:38.722Z,1.63
2022-08-22T23:16:41.025Z,1.50
2022-08-22T23:21:44.537Z,1.67
2022-08-22T23:26:47.992Z,1.53
2022-08-22T23:31:52.159Z,1.73
2022-08-22T23:36:57.964Z,2.03
2022-08-22T23:42:02.026Z,2.03
2022-08-22T23:47:05.557Z,1.53
2022-08-22T23:52:09.100Z,1.67
2022-08-22T23:57:12.780Z,1.90
